createdAt,value
2023-02-08T00:00:57.579Z,79983.88
2023-02-08T00:03:29.242Z,79975.75
2023-02-08T00:05:56.534Z,79977.78
2023-02-08T00:08:23.446Z,79979.81
2023-02-08T00:10:50.779Z,79963.59
2023-02-08T00:13:17.969Z,79973.72
2023-02-08T00:15:46.324Z,79979.81
2023-02-08T00:18:14.128Z,79971.72
2023-02-08T00:20:44.638Z,79979.81
2023-02-08T00:23:13.228Z,79983.88
2023-02-08T00:25:41.864Z,79987.94
2023-02-08T00:28:13.351Z,79987.94
2023-02-08T00:30:43.097Z,80000.13
2023-02-08T00:33:10.609Z,79983.88
2023-02-08T00:35:37.826Z,79983.88
2023-02-08T00:38:04.899Z,79983.88
2023-02-08T00:40:32.117Z,79975.75
2023-02-08T00:42:58.992Z,79977.78
2023-02-08T00:45:26.413Z,79975.75
2023-02-08T00:47:53.273Z,79979.81
2023-02-08T00:50:21.697Z,79967.66
2023-02-08T00:52:48.672Z,79971.72
2023-02-08T00:55:16.009Z,79975.75
2023-02-08T00:57:43.161Z,79973.72
2023-02-08T01:00:11.631Z,79979.81
2023-02-08T01:02:39.409Z,79975.75
2023-02-08T01:05:07.372Z,79979.81
2023-02-08T01:07:39.850Z,79973.72
2023-02-08T01:10:09.452Z,79985.91
2023-02-08T01:12:36.504Z,79979.81
2023-02-08T01:15:04.246Z,79985.91
2023-02-08T01:17:31.601Z,79979.81
2023-02-08T01:19:58.980Z,79975.75
2023-02-08T01:22:25.946Z,79979.81
2023-02-08T01:24:53.618Z,79981.84
2023-02-08T01:27:20.537Z,79987.94
2023-02-08T01:29:47.791Z,80000.13
2023-02-08T01:32:14.765Z,79987.94
2023-02-08T01:34:44.042Z,79992.00
2023-02-08T01:37:11.086Z,79989.97
2023-02-08T01:39:38.342Z,79983.88
2023-02-08T01:42:05.389Z,79996.06
2023-02-08T01:45:10.431Z,79992.00
2023-02-08T01:47:37.482Z,80000.13
2023-02-08T01:50:06.023Z,80004.16
2023-02-08T01:52:33.398Z,79992.00
2023-02-08T01:55:06.500Z,79996.06
2023-02-08T01:57:33.512Z,80004.16
2023-02-08T02:00:22.465Z,79996.06
2023-02-08T02:02:55.808Z,79998.09
2023-02-08T02:05:28.229Z,79998.09
2023-02-08T02:07:57.749Z,80002.13
2023-02-08T02:10:31.885Z,79989.97
2023-02-08T02:13:04.256Z,79992.00
2023-02-08T02:15:33.333Z,79996.06
2023-02-08T02:18:01.538Z,79996.06
2023-02-08T02:20:28.667Z,79996.06
2023-02-08T02:23:31.507Z,80008.22
2023-02-08T02:26:20.021Z,80012.28
2023-02-08T02:28:58.873Z,80008.22
2023-02-08T02:31:36.844Z,80012.28
2023-02-08T02:34:13.952Z,80018.38
2023-02-08T02:36:51.880Z,80012.28
2023-02-08T02:39:50.181Z,80016.34
2023-02-08T02:42:53.108Z,80022.44
2023-02-08T02:45:29.770Z,80020.41
2023-02-08T02:48:10.375Z,80020.41
2023-02-08T02:50:45.437Z,80022.44
2023-02-08T02:53:34.302Z,80028.53
2023-02-08T02:56:09.352Z,80036.63
2023-02-08T02:58:38.600Z,80036.63
2023-02-08T03:01:05.569Z,80036.63
2023-02-08T03:03:34.620Z,80042.72
2023-02-08T03:06:06.475Z,80044.75
2023-02-08T03:08:55.698Z,80038.66
2023-02-08T03:11:27.838Z,80044.75
2023-02-08T03:14:13.608Z,80044.75
2023-02-08T03:17:03.404Z,80040.69
2023-02-08T03:19:42.725Z,80036.63
2023-02-08T03:22:28.439Z,80044.75
2023-02-08T03:25:02.194Z,80040.69
2023-02-08T03:27:58.663Z,80044.75
2023-02-08T03:30:53.298Z,80044.75
2023-02-08T03:33:36.025Z,80048.81
2023-02-08T03:36:05.598Z,80048.81
2023-02-08T03:38:37.979Z,80052.88
2023-02-08T03:41:07.983Z,80065.03
2023-02-08T03:43:42.765Z,80073.16
2023-02-08T03:46:16.286Z,80065.03
2023-02-08T03:48:49.419Z,80073.16
2023-02-08T03:51:17.799Z,80069.09
2023-02-08T03:53:46.949Z,80069.09
2023-02-08T03:56:35.982Z,80077.22
2023-02-08T03:59:07.540Z,80079.25
2023-02-08T04:01:58.442Z,80073.16
2023-02-08T04:04:28.598Z,80085.34
2023-02-08T04:06:56.413Z,80081.28
2023-02-08T04:09:23.431Z,80081.28
2023-02-08T04:11:50.923Z,80079.25
2023-02-08T04:14:17.863Z,80081.28
2023-02-08T04:16:45.279Z,80085.34
2023-02-08T04:19:12.508Z,80081.28
2023-02-08T04:21:39.725Z,80089.41
2023-02-08T04:24:06.878Z,80093.44
2023-02-08T04:26:34.980Z,80085.34
2023-02-08T04:29:01.921Z,80089.41
2023-02-08T04:31:29.225Z,80097.50
2023-02-08T04:33:56.188Z,80087.38
2023-02-08T04:36:23.335Z,80089.41
2023-02-08T04:38:50.342Z,80097.50
2023-02-08T04:41:17.729Z,80085.34
2023-02-08T04:43:44.668Z,80085.34
2023-02-08T04:46:12.004Z,80085.34
2023-02-08T04:48:39.198Z,80093.44
2023-02-08T04:51:06.589Z,80093.44
2023-02-08T04:53:33.480Z,80093.44
2023-02-08T04:56:00.871Z,80093.44
2023-02-08T04:58:27.824Z,80085.34
2023-02-08T05:00:54.969Z,80085.34
2023-02-08T05:03:21.968Z,80085.34
2023-02-08T05:05:57.637Z,80085.34
2023-02-08T05:08:24.725Z,80087.38
2023-02-08T05:10:52.056Z,80089.41
2023-02-08T05:13:18.957Z,80085.34
2023-02-08T05:15:46.202Z,80085.34
2023-02-08T05:18:13.354Z,80087.38
2023-02-08T05:20:40.900Z,80091.44
2023-02-08T05:23:07.941Z,80105.63
2023-02-08T05:25:35.211Z,80117.81
2023-02-08T05:28:02.144Z,80117.81
2023-02-08T05:30:29.337Z,80119.84
2023-02-08T05:32:56.268Z,80119.84
2023-02-08T05:35:23.494Z,80115.78
2023-02-08T05:37:50.364Z,80115.78
2023-02-08T05:40:17.570Z,80113.75
2023-02-08T05:42:44.642Z,80113.75
2023-02-08T05:45:12.023Z,80132.00
2023-02-08T05:47:39.045Z,80121.88
2023-02-08T05:50:06.814Z,80121.88
2023-02-08T05:52:33.813Z,80125.91
2023-02-08T05:55:01.056Z,80129.97
2023-02-08T05:57:30.791Z,80146.22
2023-02-08T05:59:58.433Z,80146.22
2023-02-08T06:02:25.461Z,80156.34
2023-02-08T06:04:52.761Z,80142.16
2023-02-08T06:07:19.631Z,80146.22
2023-02-08T06:09:48.522Z,80138.09
2023-02-08T06:12:15.713Z,80138.09
2023-02-08T06:14:42.877Z,80142.16
2023-02-08T06:17:09.785Z,80150.28
2023-02-08T06:19:36.955Z,80154.31
2023-02-08T06:22:03.903Z,80162.44
2023-02-08T06:24:31.213Z,80156.34
2023-02-08T06:26:58.127Z,80156.34
2023-02-08T06:29:25.392Z,80243.63
2023-02-08T06:31:52.356Z,80154.31
2023-02-08T06:34:19.641Z,80154.31
2023-02-08T06:36:47.054Z,80150.28
2023-02-08T06:39:14.552Z,80146.22
2023-02-08T06:41:41.508Z,80158.38
2023-02-08T06:44:08.945Z,80158.38
2023-02-08T06:46:36.143Z,80158.38
2023-02-08T06:49:03.606Z,80162.44
2023-02-08T06:51:30.597Z,80160.41
2023-02-08T06:53:57.983Z,80166.50
2023-02-08T06:56:25.127Z,80170.56
2023-02-08T06:58:52.361Z,80164.47
2023-02-08T07:01:19.353Z,80174.63
2023-02-08T07:03:46.774Z,80170.56
2023-02-08T07:06:16.507Z,80174.63
2023-02-08T07:08:44.052Z,80176.66
2023-02-08T07:11:13.542Z,80184.78
2023-02-08T07:13:41.077Z,80182.75
2023-02-08T07:16:09.847Z,80186.78
2023-02-08T07:18:37.509Z,80186.78
2023-02-08T07:21:05.282Z,80176.66
2023-02-08T07:23:33.011Z,80182.75
2023-02-08T07:26:02.608Z,80178.69
2023-02-08T07:28:30.477Z,80174.63
2023-02-08T07:30:57.645Z,80174.63
2023-02-08T07:33:25.554Z,80186.78
2023-02-08T07:35:52.507Z,80182.75
2023-02-08T07:38:20.827Z,80174.63
2023-02-08T07:40:48.153Z,80174.63
2023-02-08T07:43:15.392Z,80178.69
2023-02-08T07:45:52.487Z,80174.63
2023-02-08T07:48:19.919Z,80172.59
2023-02-08T07:50:46.831Z,80162.44
2023-02-08T07:53:14.048Z,80150.28
2023-02-08T07:55:40.998Z,80150.28
2023-02-08T07:58:08.149Z,80146.22
2023-02-08T08:00:35.092Z,80138.09
2023-02-08T08:03:02.659Z,80154.31
2023-02-08T08:05:29.704Z,80158.38
2023-02-08T08:07:57.167Z,80150.28
2023-02-08T08:10:24.375Z,80150.28
2023-02-08T08:12:51.757Z,80138.09
2023-02-08T08:15:18.772Z,80125.91
2023-02-08T08:17:46.275Z,80134.03
2023-02-08T08:20:13.139Z,80115.78
2023-02-08T08:22:40.389Z,80117.81
2023-02-08T08:25:07.534Z,80109.69
2023-02-08T08:27:35.260Z,80101.56
2023-02-08T08:30:02.362Z,80093.44
2023-02-08T08:32:29.696Z,80093.44
2023-02-08T08:34:56.646Z,80073.16
2023-02-08T08:37:23.855Z,80071.13
2023-02-08T08:39:50.918Z,80052.88
2023-02-08T08:42:18.391Z,80056.94
2023-02-08T08:44:45.648Z,80061.00
2023-02-08T08:47:13.611Z,80048.81
2023-02-08T08:49:40.641Z,80038.66
2023-02-08T08:52:08.421Z,80020.41
2023-02-08T08:54:35.626Z,80020.41
2023-02-08T08:57:03.848Z,80024.47
2023-02-08T08:59:31.220Z,80024.47
2023-02-08T09:01:58.597Z,80036.63
2023-02-08T09:04:26.032Z,80040.69
2023-02-08T09:06:54.476Z,80024.47
2023-02-08T09:09:22.666Z,80026.50
2023-02-08T09:11:50.464Z,80016.34
2023-02-08T09:14:17.426Z,80004.16
2023-02-08T09:16:48.105Z,79996.06
2023-02-08T09:19:16.294Z,80006.19
2023-02-08T09:21:43.761Z,80012.28
2023-02-08T09:24:10.751Z,80008.22
2023-02-08T09:26:38.900Z,80000.13
2023-02-08T09:29:06.811Z,79987.94
2023-02-08T09:31:39.560Z,79979.81
2023-02-08T09:34:07.630Z,79959.53
2023-02-08T09:36:38.315Z,79943.31
2023-02-08T09:39:10.822Z,79931.13
2023-02-08T09:41:52.900Z,79927.06
2023-02-08T09:44:47.298Z,79914.88
2023-02-08T09:47:34.655Z,79923.00
2023-02-08T09:50:18.695Z,79931.13
2023-02-08T09:52:54.518Z,79935.19
2023-02-08T09:55:58.565Z,79937.22
2023-02-08T09:58:39.326Z,79941.28
2023-02-08T10:01:21.075Z,79939.25
2023-02-08T10:03:52.394Z,79918.94
2023-02-08T10:06:20.867Z,79927.06
2023-02-08T10:08:51.273Z,79918.94
2023-02-08T10:11:43.442Z,79918.94
2023-02-08T10:14:44.035Z,79935.19
2023-02-08T10:17:46.724Z,79955.47
2023-02-08T10:20:41.062Z,79918.94
2023-02-08T10:23:22.525Z,79914.88
2023-02-08T10:26:08.355Z,79906.78
2023-02-08T10:28:41.322Z,79898.66
2023-02-08T10:31:17.766Z,79890.53
2023-02-08T10:34:12.816Z,79902.72
2023-02-08T10:36:42.157Z,79927.06
2023-02-08T10:39:26.637Z,79931.13
2023-02-08T10:41:54.612Z,79918.94
2023-02-08T10:44:36.696Z,79933.16
2023-02-08T10:47:35.588Z,79914.88
2023-02-08T10:50:12.714Z,79914.88
2023-02-08T10:52:40.124Z,79904.75
2023-02-08T10:55:16.660Z,79925.03
2023-02-08T10:57:50.292Z,79918.94
2023-02-08T11:00:25.308Z,79918.94
2023-02-08T11:02:53.758Z,79906.78
2023-02-08T11:05:31.351Z,79890.53
2023-02-08T11:08:12.279Z,79876.34
2023-02-08T11:10:41.127Z,79862.13
2023-02-08T11:13:15.157Z,79854.03
2023-02-08T11:15:56.107Z,79841.84
2023-02-08T11:18:40.002Z,79845.91
2023-02-08T11:21:29.551Z,79858.06
2023-02-08T11:23:58.134Z,79862.13
2023-02-08T11:26:30.992Z,79870.25
2023-02-08T11:29:23.281Z,79862.13
2023-02-08T11:31:53.842Z,79862.13
2023-02-08T11:34:30.820Z,79866.19
2023-02-08T11:36:59.841Z,79878.38
2023-02-08T11:39:34.856Z,79882.44
2023-02-08T11:42:03.141Z,79882.44
2023-02-08T11:44:43.720Z,79874.31
2023-02-08T11:47:16.722Z,79874.31
2023-02-08T11:50:02.112Z,79874.31
2023-02-08T11:52:42.584Z,79886.47
2023-02-08T11:55:31.173Z,79874.31
2023-02-08T11:58:06.179Z,79858.06
2023-02-08T12:00:36.010Z,79849.97
2023-02-08T12:03:18.284Z,79839.81
2023-02-08T12:06:03.615Z,79831.69
2023-02-08T12:08:40.277Z,79821.56
2023-02-08T12:11:17.268Z,79827.66
2023-02-08T12:14:27.703Z,79825.63
2023-02-08T12:17:09.357Z,79823.59
2023-02-08T12:20:05.284Z,79817.50
2023-02-08T12:22:39.722Z,79809.38
2023-02-08T12:25:27.768Z,79819.53
2023-02-08T12:28:37.866Z,79835.75
2023-02-08T12:31:23.546Z,79833.72
2023-02-08T12:34:02.030Z,79821.56
2023-02-08T12:37:26.374Z,79821.56
2023-02-08T12:40:48.660Z,79817.50
2023-02-08T12:43:22.720Z,79809.38
2023-02-08T12:45:56.866Z,79780.97
2023-02-08T12:48:56.783Z,79752.56
2023-02-08T12:51:50.521Z,79736.34
2023-02-08T12:54:44.930Z,79722.13
2023-02-08T12:57:16.106Z,79724.16
2023-02-08T12:59:59.440Z,79716.03
2023-02-08T13:02:44.608Z,79703.88
2023-02-08T13:05:22.541Z,79748.50
2023-02-08T13:08:01.880Z,79752.56
2023-02-08T13:10:39.533Z,79764.75
2023-02-08T13:13:16.503Z,79797.22
2023-02-08T13:15:53.098Z,79809.38
2023-02-08T13:18:25.546Z,79817.50
2023-02-08T13:20:55.556Z,79821.56
2023-02-08T13:23:25.258Z,79821.56
2023-02-08T13:25:57.351Z,79829.66
2023-02-08T13:28:26.175Z,79841.84
2023-02-08T13:31:20.255Z,79852.00
2023-02-08T13:34:01.582Z,79849.97
2023-02-08T13:36:34.032Z,79866.19
2023-02-08T13:39:05.800Z,79870.25
2023-02-08T13:41:34.836Z,79845.91
2023-02-08T13:44:09.038Z,79817.50
2023-02-08T13:46:48.126Z,79805.31
2023-02-08T13:49:43.723Z,79766.78
2023-02-08T13:52:12.893Z,79752.56
2023-02-08T13:54:40.465Z,79740.41
2023-02-08T13:58:00.439Z,79752.56
2023-02-08T14:00:37.814Z,79778.94
2023-02-08T14:03:07.949Z,79780.97
2023-02-08T14:06:01.370Z,79795.19
2023-02-08T14:08:40.685Z,79813.44
2023-02-08T14:11:26.985Z,79833.72
2023-02-08T14:14:21.286Z,79845.91
2023-02-08T14:17:03.986Z,79843.88
2023-02-08T14:19:33.760Z,79860.09
2023-02-08T14:22:14.464Z,79866.19
2023-02-08T14:24:49.817Z,79858.06
2023-02-08T14:27:20.541Z,79868.22
2023-02-08T14:30:04.437Z,79890.53
2023-02-08T14:32:35.722Z,79898.66
2023-02-08T14:35:11.689Z,79902.72
2023-02-08T14:37:40.163Z,79910.84
2023-02-08T14:40:25.103Z,79914.88
2023-02-08T14:43:01.664Z,79927.06
2023-02-08T14:45:33.224Z,79927.06
2023-02-08T14:48:30.428Z,79949.38
2023-02-08T14:51:06.767Z,79959.53
2023-02-08T14:53:52.839Z,79975.75
2023-02-08T14:56:26.017Z,79979.81
2023-02-08T14:59:00.868Z,80000.13
2023-02-08T15:01:28.528Z,79996.06
2023-02-08T15:04:01.885Z,80008.22
2023-02-08T15:06:38.624Z,80016.34
2023-02-08T15:09:19.247Z,80016.34
2023-02-08T15:12:04.337Z,80040.69
2023-02-08T15:14:36.215Z,80048.81
2023-02-08T15:17:03.706Z,80054.91
2023-02-08T15:19:40.055Z,80065.03
2023-02-08T15:22:31.236Z,80077.22
2023-02-08T15:25:02.451Z,80089.41
2023-02-08T15:27:34.800Z,80097.50
2023-02-08T15:30:02.375Z,80105.63
2023-02-08T15:32:30.802Z,80154.31
2023-02-08T15:35:02.654Z,80121.88
2023-02-08T15:37:34.779Z,80134.03
2023-02-08T15:40:04.949Z,80134.03
2023-02-08T15:42:35.913Z,80138.09
2023-02-08T15:45:04.666Z,80150.28
2023-02-08T15:47:37.961Z,80154.31
2023-02-08T15:50:08.556Z,80158.38
2023-02-08T15:52:37.702Z,80162.44
2023-02-08T15:55:10.529Z,80158.38
2023-02-08T15:58:02.900Z,80162.44
2023-02-08T16:00:33.253Z,80170.56
2023-02-08T16:03:08.873Z,80174.63
2023-02-08T16:05:38.206Z,80178.69
2023-02-08T16:08:06.852Z,80178.69
2023-02-08T16:10:36.915Z,80176.66
2023-02-08T16:13:31.763Z,80184.78
2023-02-08T16:16:33.639Z,80188.81
2023-02-08T16:19:04.847Z,80178.69
2023-02-08T16:21:39.343Z,80190.84
2023-02-08T16:24:09.029Z,80192.88
2023-02-08T16:26:59.847Z,80198.97
2023-02-08T16:29:46.499Z,80198.97
2023-02-08T16:32:31.835Z,80201.00
2023-02-08T16:35:01.558Z,80209.13
2023-02-08T16:37:35.423Z,80209.13
2023-02-08T16:40:24.687Z,80211.16
2023-02-08T16:42:52.758Z,80211.16
2023-02-08T16:45:22.608Z,80215.22
2023-02-08T16:48:04.252Z,80211.16
2023-02-08T16:50:41.007Z,80213.19
2023-02-08T16:53:12.546Z,80215.22
2023-02-08T16:55:39.859Z,80223.31
2023-02-08T16:58:15.875Z,80219.25
2023-02-08T17:00:43.991Z,80219.25
2023-02-08T17:03:12.145Z,80215.22
2023-02-08T17:05:41.180Z,80219.25
2023-02-08T17:08:16.516Z,80213.19
2023-02-08T17:10:44.551Z,80215.22
2023-02-08T17:13:21.208Z,80219.25
2023-02-08T17:15:50.769Z,80207.09
2023-02-08T17:18:18.511Z,80221.28
2023-02-08T17:20:46.186Z,80221.28
2023-02-08T17:23:15.862Z,80219.25
2023-02-08T17:25:43.835Z,80223.31
2023-02-08T17:28:21.214Z,80223.31
2023-02-08T17:30:50.329Z,80239.56
2023-02-08T17:33:18.540Z,80215.22
2023-02-08T17:35:47.822Z,80227.38
2023-02-08T17:38:16.158Z,80213.19
2023-02-08T17:40:44.505Z,80223.31
2023-02-08T17:43:13.073Z,80223.31
2023-02-08T17:45:42.469Z,80243.63
2023-02-08T17:48:10.163Z,80243.63
2023-02-08T17:50:37.155Z,80227.38
2023-02-08T17:53:04.531Z,80227.38
2023-02-08T17:55:31.720Z,80241.59
2023-02-08T17:57:59.134Z,80239.56
2023-02-08T18:00:26.585Z,80241.59
2023-02-08T18:02:55.641Z,80235.50
2023-02-08T18:05:26.065Z,80251.72
2023-02-08T18:07:55.852Z,80247.69
2023-02-08T18:10:24.942Z,80249.69
2023-02-08T18:12:52.434Z,80253.75
2023-02-08T18:15:21.688Z,80251.72
2023-02-08T18:17:50.664Z,80259.84
2023-02-08T18:20:18.530Z,80255.78
2023-02-08T18:22:46.187Z,80251.72
2023-02-08T18:25:14.540Z,80259.84
2023-02-08T18:27:42.003Z,80259.84
2023-02-08T18:30:10.974Z,80263.91
2023-02-08T18:32:39.227Z,80267.97
2023-02-08T18:35:08.862Z,80267.97
2023-02-08T18:37:37.685Z,80282.16
2023-02-08T18:40:06.883Z,80280.13
2023-02-08T18:42:36.057Z,80284.19
2023-02-08T18:45:05.160Z,80284.19
2023-02-08T18:47:32.762Z,80280.13
2023-02-08T18:49:59.702Z,80292.31
2023-02-08T18:52:27.377Z,80284.19
2023-02-08T18:54:54.496Z,80284.19
2023-02-08T18:57:22.174Z,80284.19
2023-02-08T18:59:49.573Z,80296.38
2023-02-08T19:02:21.000Z,80290.28
2023-02-08T19:04:48.410Z,80302.47
2023-02-08T19:07:16.397Z,80300.44
2023-02-08T19:09:44.186Z,80304.50
2023-02-08T19:12:15.555Z,80312.63
2023-02-08T19:14:44.017Z,80312.63
2023-02-08T19:17:14.369Z,80312.63
2023-02-08T19:19:42.090Z,80316.66
2023-02-08T19:22:09.698Z,80312.63
2023-02-08T19:24:37.816Z,80312.63
2023-02-08T19:27:05.612Z,80312.63
2023-02-08T19:29:34.553Z,80308.56
2023-02-08T19:32:02.202Z,80312.63
2023-02-08T19:34:29.565Z,80310.59
2023-02-08T19:36:56.820Z,80304.50
2023-02-08T19:39:26.709Z,80302.47
2023-02-08T19:41:54.687Z,80300.44
2023-02-08T19:44:22.796Z,80300.44
2023-02-08T19:46:55.054Z,80308.56
2023-02-08T19:49:25.883Z,80310.59
2023-02-08T19:51:53.332Z,80312.63
2023-02-08T19:54:21.345Z,80320.72
2023-02-08T19:56:50.535Z,80320.72
2023-02-08T19:59:26.535Z,80324.78
2023-02-08T20:01:54.929Z,80320.72
2023-02-08T20:04:22.383Z,80326.81
2023-02-08T20:06:53.269Z,80334.94
2023-02-08T20:09:20.751Z,80334.94
2023-02-08T20:11:56.826Z,80341.03
2023-02-08T20:14:25.214Z,80336.97
2023-02-08T20:16:52.645Z,80345.06
2023-02-08T20:19:19.732Z,80345.06
2023-02-08T20:21:47.454Z,80361.31
2023-02-08T20:24:14.806Z,80361.31
2023-02-08T20:26:45.215Z,80361.31
2023-02-08T20:29:13.664Z,80361.31
2023-02-08T20:31:43.766Z,80357.25
2023-02-08T20:34:13.775Z,80361.31
2023-02-08T20:36:49.600Z,80361.31
2023-02-08T20:39:20.773Z,80361.31
2023-02-08T20:41:48.274Z,80353.19
2023-02-08T20:44:18.157Z,80353.19
2023-02-08T20:46:46.644Z,80349.13
2023-02-08T20:49:15.412Z,80341.03
2023-02-08T20:51:43.527Z,80332.91
2023-02-08T20:54:11.241Z,80345.06
2023-02-08T20:56:39.678Z,80345.06
2023-02-08T20:59:08.856Z,80345.06
2023-02-08T21:01:37.086Z,80349.13
2023-02-08T21:04:05.114Z,80345.06
2023-02-08T21:06:35.398Z,80357.25
2023-02-08T21:09:08.579Z,80361.31
2023-02-08T21:11:37.149Z,80361.31
2023-02-08T21:14:05.477Z,80361.31
2023-02-08T21:16:33.195Z,80367.41
2023-02-08T21:19:01.096Z,80375.53
2023-02-08T21:21:29.042Z,80381.59
2023-02-08T21:23:57.925Z,80389.72
2023-02-08T21:26:26.077Z,80389.72
2023-02-08T21:28:57.010Z,80397.84
2023-02-08T21:31:25.227Z,80410.03
2023-02-08T21:33:53.025Z,80405.97
2023-02-08T21:36:23.149Z,80405.97
2023-02-08T21:38:51.373Z,80410.03
2023-02-08T21:41:23.149Z,80430.31
2023-02-08T21:43:51.354Z,80442.50
2023-02-08T21:46:18.785Z,80442.50
2023-02-08T21:49:04.847Z,80440.47
2023-02-08T21:52:04.352Z,80479.00
2023-02-08T21:54:42.852Z,80454.66
2023-02-08T21:57:37.900Z,80458.72
2023-02-08T22:00:08.206Z,80466.84
2023-02-08T22:02:39.940Z,80483.06
2023-02-08T22:05:25.878Z,80479.00
2023-02-08T22:07:56.670Z,80485.09
2023-02-08T22:10:27.548Z,80487.13
2023-02-08T22:12:55.721Z,80495.25
2023-02-08T22:15:24.560Z,80485.09
2023-02-08T22:18:00.248Z,80491.19
2023-02-08T22:20:28.472Z,80491.19
2023-02-08T22:22:56.472Z,80491.19
2023-02-08T22:25:23.691Z,80495.25
2023-02-08T22:27:51.097Z,80491.19
2023-02-08T22:30:21.826Z,80505.41
2023-02-08T22:32:49.748Z,80503.38
2023-02-08T22:35:18.400Z,80511.50
2023-02-08T22:37:45.606Z,80515.53
2023-02-08T22:40:12.923Z,80521.63
2023-02-08T22:42:41.236Z,80515.53
2023-02-08T22:45:09.024Z,80507.44
2023-02-08T22:47:36.743Z,80499.31
2023-02-08T22:50:04.989Z,80503.38
2023-02-08T22:52:34.421Z,80495.25
2023-02-08T22:55:04.057Z,80495.25
2023-02-08T22:57:33.066Z,80487.13
2023-02-08T23:00:00.272Z,80483.06
2023-02-08T23:02:28.082Z,80477.00
2023-02-08T23:04:55.499Z,80474.97
2023-02-08T23:07:23.022Z,80474.97
2023-02-08T23:09:50.040Z,80479.00
2023-02-08T23:12:17.592Z,80464.81
2023-02-08T23:14:44.819Z,80462.78
2023-02-08T23:17:12.128Z,80450.59
2023-02-08T23:19:40.725Z,80452.63
2023-02-08T23:22:09.043Z,80446.53
2023-02-08T23:24:35.976Z,80450.59
2023-02-08T23:27:03.325Z,80446.53
2023-02-08T23:29:48.593Z,80450.59
2023-02-08T23:32:16.198Z,80454.66
2023-02-08T23:34:43.070Z,80458.72
2023-02-08T23:37:10.539Z,80458.72
2023-02-08T23:39:37.396Z,80464.81
2023-02-08T23:42:05.818Z,80454.66
2023-02-08T23:44:32.941Z,80452.63
2023-02-08T23:47:00.311Z,80466.84
2023-02-08T23:49:27.195Z,80458.72
2023-02-08T23:51:54.738Z,80462.78
2023-02-08T23:54:21.686Z,80470.91
2023-02-08T23:56:48.873Z,80462.78
2023-02-08T23:59:16.761Z,80466.84
